sensor_id;sensor_type;location;lat;lon;timestamp;P1;durP1;ratioP1;P2;durP2;ratioP2
46863;SDS011;32598;50.204;6.408;2023-05-07T00:00:27;4.97;;;2.10;;
46863;SDS011;32598;50.204;6.408;2023-05-07T00:02:53;6.80;;;3.10;;
46863;SDS011;32598;50.204;6.408;2023-05-07T00:05:18;8.17;;;2.90;;
46863;SDS011;32598;50.204;6.408;2023-05-07T00:07:43;6.25;;;2.17;;
46863;SDS011;32598;50.204;6.408;2023-05-07T00:10:09;5.47;;;2.50;;
46863;SDS011;32598;50.204;6.408;2023-05-07T00:12:35;7.10;;;3.22;;
46863;SDS011;32598;50.204;6.408;2023-05-07T00:15:01;8.60;;;3.30;;
46863;SDS011;32598;50.204;6.408;2023-05-07T00:17:26;6.55;;;2.58;;
46863;SDS011;32598;50.204;6.408;2023-05-07T00:19:51;8.45;;;2.50;;
46863;SDS011;32598;50.204;6.408;2023-05-07T00:22:17;6.15;;;2.50;;
46863;SDS011;32598;50.204;6.408;2023-05-07T00:24:42;6.22;;;2.72;;
46863;SDS011;32598;50.204;6.408;2023-05-07T00:27:07;5.77;;;3.03;;
46863;SDS011;32598;50.204;6.408;2023-05-07T00:29:32;6.17;;;3.20;;
46863;SDS011;32598;50.204;6.408;2023-05-07T00:31:57;6.18;;;2.63;;
46863;SDS011;32598;50.204;6.408;2023-05-07T00:34:22;8.57;;;2.70;;
46863;SDS011;32598;50.204;6.408;2023-05-07T00:36:48;9.17;;;3.03;;
46863;SDS011;32598;50.204;6.408;2023-05-07T00:39:13;7.70;;;2.97;;
46863;SDS011;32598;50.204;6.408;2023-05-07T00:41:38;7.87;;;2.70;;
46863;SDS011;32598;50.204;6.408;2023-05-07T00:44:03;8.00;;;2.90;;
46863;SDS011;32598;50.204;6.408;2023-05-07T00:46:28;9.30;;;3.20;;
46863;SDS011;32598;50.204;6.408;2023-05-07T00:48:55;8.55;;;3.15;;
46863;SDS011;32598;50.204;6.408;2023-05-07T00:51:21;7.28;;;3.00;;
46863;SDS011;32598;50.204;6.408;2023-05-07T00:53:46;5.97;;;3.00;;
46863;SDS011;32598;50.204;6.408;2023-05-07T00:56:11;6.10;;;3.00;;
46863;SDS011;32598;50.204;6.408;2023-05-07T00:58:37;7.65;;;2.90;;
46863;SDS011;32598;50.204;6.408;2023-05-07T01:01:02;7.25;;;3.70;;
46863;SDS011;32598;50.204;6.408;2023-05-07T01:03:28;6.90;;;3.35;;
46863;SDS011;32598;50.204;6.408;2023-05-07T01:05:53;6.18;;;3.10;;
46863;SDS011;32598;50.204;6.408;2023-05-07T01:08:19;6.40;;;3.08;;
46863;SDS011;32598;50.204;6.408;2023-05-07T01:10:44;8.23;;;3.55;;
46863;SDS011;32598;50.204;6.408;2023-05-07T01:13:10;5.95;;;3.33;;
46863;SDS011;32598;50.204;6.408;2023-05-07T01:15:36;7.50;;;3.10;;
46863;SDS011;32598;50.204;6.408;2023-05-07T01:18:01;5.80;;;2.88;;
46863;SDS011;32598;50.204;6.408;2023-05-07T01:20:27;7.45;;;3.05;;
46863;SDS011;32598;50.204;6.408;2023-05-07T01:22:52;7.47;;;3.05;;
46863;SDS011;32598;50.204;6.408;2023-05-07T01:25:19;7.33;;;2.80;;
46863;SDS011;32598;50.204;6.408;2023-05-07T01:27:45;6.63;;;3.40;;
46863;SDS011;32598;50.204;6.408;2023-05-07T01:30:11;7.50;;;3.15;;
46863;SDS011;32598;50.204;6.408;2023-05-07T01:32:48;8.45;;;3.30;;
46863;SDS011;32598;50.204;6.408;2023-05-07T01:35:21;6.20;;;2.65;;
46863;SDS011;32598;50.204;6.408;2023-05-07T01:37:47;7.22;;;3.08;;
46863;SDS011;32598;50.204;6.408;2023-05-07T01:40:13;6.18;;;2.92;;
46863;SDS011;32598;50.204;6.408;2023-05-07T01:42:38;6.05;;;2.60;;
46863;SDS011;32598;50.204;6.408;2023-05-07T01:45:03;10.38;;;3.05;;
46863;SDS011;32598;50.204;6.408;2023-05-07T01:47:29;8.48;;;2.97;;
46863;SDS011;32598;50.204;6.408;2023-05-07T01:49:54;7.03;;;2.90;;
46863;SDS011;32598;50.204;6.408;2023-05-07T01:52:20;6.32;;;2.88;;
46863;SDS011;32598;50.204;6.408;2023-05-07T01:54:45;7.90;;;2.55;;
46863;SDS011;32598;50.204;6.408;2023-05-07T01:57:10;6.53;;;2.80;;
46863;SDS011;32598;50.204;6.408;2023-05-07T01:59:35;5.35;;;2.58;;
46863;SDS011;32598;50.204;6.408;2023-05-07T02:02:01;5.40;;;2.63;;
46863;SDS011;32598;50.204;6.408;2023-05-07T02:04:26;7.67;;;2.80;;
46863;SDS011;32598;50.204;6.408;2023-05-07T02:06:51;7.90;;;2.60;;
46863;SDS011;32598;50.204;6.408;2023-05-07T02:09:17;6.40;;;2.50;;
46863;SDS011;32598;50.204;6.408;2023-05-07T02:11:43;6.25;;;2.38;;
46863;SDS011;32598;50.204;6.408;2023-05-07T02:14:08;5.38;;;2.00;;
46863;SDS011;32598;50.204;6.408;2023-05-07T02:16:34;5.70;;;2.03;;
46863;SDS011;32598;50.204;6.408;2023-05-07T02:18:59;6.27;;;2.70;;
46863;SDS011;32598;50.204;6.408;2023-05-07T02:21:24;4.97;;;2.17;;
46863;SDS011;32598;50.204;6.408;2023-05-07T02:23:50;4.93;;;2.20;;
46863;SDS011;32598;50.204;6.408;2023-05-07T02:26:15;5.63;;;2.08;;
46863;SDS011;32598;50.204;6.408;2023-05-07T02:28:40;5.47;;;2.47;;
46863;SDS011;32598;50.204;6.408;2023-05-07T02:31:05;5.53;;;2.10;;
46863;SDS011;32598;50.204;6.408;2023-05-07T02:33:31;5.37;;;2.23;;
46863;SDS011;32598;50.204;6.408;2023-05-07T02:35:56;6.68;;;2.40;;
46863;SDS011;32598;50.204;6.408;2023-05-07T02:38:22;7.27;;;2.33;;
46863;SDS011;32598;50.204;6.408;2023-05-07T02:40:47;4.25;;;2.13;;
46863;SDS011;32598;50.204;6.408;2023-05-07T02:43:12;5.65;;;1.60;;
46863;SDS011;32598;50.204;6.408;2023-05-07T02:45:37;4.70;;;1.85;;
46863;SDS011;32598;50.204;6.408;2023-05-07T02:48:03;5.68;;;2.38;;
46863;SDS011;32598;50.204;6.408;2023-05-07T02:50:28;7.25;;;2.00;;
46863;SDS011;32598;50.204;6.408;2023-05-07T02:52:54;5.75;;;2.17;;
46863;SDS011;32598;50.204;6.408;2023-05-07T02:55:19;5.70;;;2.30;;
46863;SDS011;32598;50.204;6.408;2023-05-07T02:57:45;6.72;;;2.30;;
46863;SDS011;32598;50.204;6.408;2023-05-07T03:00:11;5.57;;;2.00;;
46863;SDS011;32598;50.204;6.408;2023-05-07T03:02:37;6.30;;;2.15;;
46863;SDS011;32598;50.204;6.408;2023-05-07T03:05:03;5.40;;;1.83;;
46863;SDS011;32598;50.204;6.408;2023-05-07T03:07:28;5.65;;;2.10;;
46863;SDS011;32598;50.204;6.408;2023-05-07T03:09:53;6.07;;;1.95;;
46863;SDS011;32598;50.204;6.408;2023-05-07T03:12:18;5.73;;;2.10;;
46863;SDS011;32598;50.204;6.408;2023-05-07T03:14:44;5.20;;;2.03;;
46863;SDS011;32598;50.204;6.408;2023-05-07T03:17:09;4.77;;;2.20;;
46863;SDS011;32598;50.204;6.408;2023-05-07T03:19:34;5.28;;;2.10;;
46863;SDS011;32598;50.204;6.408;2023-05-07T03:22:00;6.07;;;2.20;;
46863;SDS011;32598;50.204;6.408;2023-05-07T03:24:25;7.70;;;2.10;;
46863;SDS011;32598;50.204;6.408;2023-05-07T03:26:50;6.25;;;2.28;;
46863;SDS011;32598;50.204;6.408;2023-05-07T03:29:15;4.70;;;1.73;;
46863;SDS011;32598;50.204;6.408;2023-05-07T03:31:40;5.63;;;2.30;;
46863;SDS011;32598;50.204;6.408;2023-05-07T03:34:06;4.27;;;1.60;;
46863;SDS011;32598;50.204;6.408;2023-05-07T03:36:31;5.50;;;2.10;;
46863;SDS011;32598;50.204;6.408;2023-05-07T03:38:56;4.70;;;1.90;;
46863;SDS011;32598;50.204;6.408;2023-05-07T03:41:21;6.20;;;2.30;;
46863;SDS011;32598;50.204;6.408;2023-05-07T03:43:46;6.47;;;2.40;;
46863;SDS011;32598;50.204;6.408;2023-05-07T03:46:12;5.63;;;2.30;;
46863;SDS011;32598;50.204;6.408;2023-05-07T03:48:37;4.87;;;2.37;;
46863;SDS011;32598;50.204;6.408;2023-05-07T03:51:03;6.40;;;2.78;;
46863;SDS011;32598;50.204;6.408;2023-05-07T03:53:28;6.63;;;2.70;;
46863;SDS011;32598;50.204;6.408;2023-05-07T03:55:53;7.93;;;2.27;;
46863;SDS011;32598;50.204;6.408;2023-05-07T03:58:18;5.00;;;2.22;;
46863;SDS011;32598;50.204;6.408;2023-05-07T04:00:44;7.05;;;2.50;;
46863;SDS011;32598;50.204;6.408;2023-05-07T04:03:09;4.75;;;1.92;;
46863;SDS011;32598;50.204;6.408;2023-05-07T04:05:34;7.67;;;2.13;;
46863;SDS011;32598;50.204;6.408;2023-05-07T04:07:59;5.43;;;2.07;;
46863;SDS011;32598;50.204;6.408;2023-05-07T04:10:25;5.00;;;2.20;;
46863;SDS011;32598;50.204;6.408;2023-05-07T04:12:50;4.88;;;2.25;;
46863;SDS011;32598;50.204;6.408;2023-05-07T04:15:15;5.65;;;2.40;;
46863;SDS011;32598;50.204;6.408;2023-05-07T04:17:40;6.88;;;2.20;;
46863;SDS011;32598;50.204;6.408;2023-05-07T04:20:08;6.97;;;2.63;;
46863;SDS011;32598;50.204;6.408;2023-05-07T04:22:33;6.90;;;2.40;;
46863;SDS011;32598;50.204;6.408;2023-05-07T04:24:58;4.93;;;2.13;;
46863;SDS011;32598;50.204;6.408;2023-05-07T04:27:24;5.05;;;2.00;;
46863;SDS011;32598;50.204;6.408;2023-05-07T04:29:49;5.63;;;2.20;;
46863;SDS011;32598;50.204;6.408;2023-05-07T04:32:14;5.93;;;2.23;;
46863;SDS011;32598;50.204;6.408;2023-05-07T04:34:39;5.80;;;2.10;;
46863;SDS011;32598;50.204;6.408;2023-05-07T04:37:05;5.90;;;2.10;;
46863;SDS011;32598;50.204;6.408;2023-05-07T04:39:30;9.97;;;2.20;;
46863;SDS011;32598;50.204;6.408;2023-05-07T04:41:55;6.10;;;1.90;;
46863;SDS011;32598;50.204;6.408;2023-05-07T04:44:21;6.88;;;2.47;;
46863;SDS011;32598;50.204;6.408;2023-05-07T04:46:46;5.97;;;2.50;;
46863;SDS011;32598;50.204;6.408;2023-05-07T04:49:11;5.72;;;2.63;;
46863;SDS011;32598;50.204;6.408;2023-05-07T04:51:36;6.50;;;2.60;;
46863;SDS011;32598;50.204;6.408;2023-05-07T04:54:03;6.00;;;2.40;;
46863;SDS011;32598;50.204;6.408;2023-05-07T04:56:28;7.10;;;2.45;;
46863;SDS011;32598;50.204;6.408;2023-05-07T04:58:54;6.68;;;2.50;;
46863;SDS011;32598;50.204;6.408;2023-05-07T05:01:20;5.47;;;2.30;;
46863;SDS011;32598;50.204;6.408;2023-05-07T05:03:45;6.35;;;2.20;;
46863;SDS011;32598;50.204;6.408;2023-05-07T05:06:10;6.03;;;2.10;;
46863;SDS011;32598;50.204;6.408;2023-05-07T05:08:35;6.07;;;2.60;;
46863;SDS011;32598;50.204;6.408;2023-05-07T05:11:01;7.07;;;2.80;;
46863;SDS011;32598;50.204;6.408;2023-05-07T05:13:27;4.78;;;2.35;;
46863;SDS011;32598;50.204;6.408;2023-05-07T05:15:52;5.60;;;2.07;;
46863;SDS011;32598;50.204;6.408;2023-05-07T05:18:17;4.60;;;2.10;;
46863;SDS011;32598;50.204;6.408;2023-05-07T05:20:42;7.30;;;2.28;;
46863;SDS011;32598;50.204;6.408;2023-05-07T05:23:07;5.33;;;2.17;;
46863;SDS011;32598;50.204;6.408;2023-05-07T05:25:32;5.77;;;1.93;;
46863;SDS011;32598;50.204;6.408;2023-05-07T05:27:58;4.80;;;1.90;;
46863;SDS011;32598;50.204;6.408;2023-05-07T05:30:23;5.57;;;1.90;;
46863;SDS011;32598;50.204;6.408;2023-05-07T05:32:48;6.07;;;2.13;;
46863;SDS011;32598;50.204;6.408;2023-05-07T05:35:13;6.40;;;2.40;;
46863;SDS011;32598;50.204;6.408;2023-05-07T05:37:38;5.13;;;1.83;;
46863;SDS011;32598;50.204;6.408;2023-05-07T05:40:04;5.67;;;2.00;;
46863;SDS011;32598;50.204;6.408;2023-05-07T05:42:29;5.68;;;2.30;;
46863;SDS011;32598;50.204;6.408;2023-05-07T05:44:54;5.68;;;2.22;;
46863;SDS011;32598;50.204;6.408;2023-05-07T05:47:20;4.60;;;1.77;;
46863;SDS011;32598;50.204;6.408;2023-05-07T05:49:45;5.33;;;2.03;;
46863;SDS011;32598;50.204;6.408;2023-05-07T05:52:11;6.00;;;2.07;;
46863;SDS011;32598;50.204;6.408;2023-05-07T05:54:37;6.07;;;2.28;;
46863;SDS011;32598;50.204;6.408;2023-05-07T05:57:02;6.35;;;2.28;;
46863;SDS011;32598;50.204;6.408;2023-05-07T05:59:29;4.95;;;2.10;;
46863;SDS011;32598;50.204;6.408;2023-05-07T06:01:54;7.60;;;2.80;;
46863;SDS011;32598;50.204;6.408;2023-05-07T06:04:19;8.97;;;2.40;;
46863;SDS011;32598;50.204;6.408;2023-05-07T06:06:44;5.73;;;2.37;;
46863;SDS011;32598;50.204;6.408;2023-05-07T06:09:09;7.70;;;2.60;;
46863;SDS011;32598;50.204;6.408;2023-05-07T06:11:35;6.93;;;3.20;;
46863;SDS011;32598;50.204;6.408;2023-05-07T06:14:00;7.37;;;2.30;;
46863;SDS011;32598;50.204;6.408;2023-05-07T06:16:25;6.90;;;2.50;;
46863;SDS011;32598;50.204;6.408;2023-05-07T06:18:50;5.90;;;3.13;;
46863;SDS011;32598;50.204;6.408;2023-05-07T06:21:15;6.65;;;2.60;;
46863;SDS011;32598;50.204;6.408;2023-05-07T06:23:41;7.53;;;2.55;;
46863;SDS011;32598;50.204;6.408;2023-05-07T06:26:06;6.00;;;2.60;;
46863;SDS011;32598;50.204;6.408;2023-05-07T06:28:31;7.43;;;2.85;;
46863;SDS011;32598;50.204;6.408;2023-05-07T06:31:16;5.70;;;2.58;;
46863;SDS011;32598;50.204;6.408;2023-05-07T06:33:42;5.22;;;2.35;;
46863;SDS011;32598;50.204;6.408;2023-05-07T06:36:08;7.72;;;2.78;;
46863;SDS011;32598;50.204;6.408;2023-05-07T06:38:33;5.72;;;2.80;;
46863;SDS011;32598;50.204;6.408;2023-05-07T06:40:58;7.13;;;2.40;;
46863;SDS011;32598;50.204;6.408;2023-05-07T06:43:23;7.97;;;2.57;;
46863;SDS011;32598;50.204;6.408;2023-05-07T06:45:48;5.85;;;2.53;;
46863;SDS011;32598;50.204;6.408;2023-05-07T06:48:13;7.68;;;2.53;;
46863;SDS011;32598;50.204;6.408;2023-05-07T06:50:39;6.05;;;2.30;;
46863;SDS011;32598;50.204;6.408;2023-05-07T06:53:04;8.38;;;2.85;;
46863;SDS011;32598;50.204;6.408;2023-05-07T06:55:30;6.33;;;2.80;;
46863;SDS011;32598;50.204;6.408;2023-05-07T06:57:55;5.30;;;2.30;;
46863;SDS011;32598;50.204;6.408;2023-05-07T07:00:20;5.32;;;2.33;;
46863;SDS011;32598;50.204;6.408;2023-05-07T07:02:45;6.57;;;2.60;;
46863;SDS011;32598;50.204;6.408;2023-05-07T07:05:10;6.83;;;2.17;;
46863;SDS011;32598;50.204;6.408;2023-05-07T07:07:36;5.85;;;2.50;;
46863;SDS011;32598;50.204;6.408;2023-05-07T07:10:01;6.50;;;2.93;;
46863;SDS011;32598;50.204;6.408;2023-05-07T07:12:26;5.35;;;2.75;;
46863;SDS011;32598;50.204;6.408;2023-05-07T07:14:53;6.13;;;2.75;;
46863;SDS011;32598;50.204;6.408;2023-05-07T07:17:18;5.67;;;2.70;;
46863;SDS011;32598;50.204;6.408;2023-05-07T07:19:44;7.95;;;2.38;;
46863;SDS011;32598;50.204;6.408;2023-05-07T07:22:09;7.27;;;2.87;;
46863;SDS011;32598;50.204;6.408;2023-05-07T07:24:35;6.10;;;2.45;;
46863;SDS011;32598;50.204;6.408;2023-05-07T07:27:00;5.97;;;2.60;;
46863;SDS011;32598;50.204;6.408;2023-05-07T07:29:25;6.25;;;2.47;;
46863;SDS011;32598;50.204;6.408;2023-05-07T07:31:51;8.30;;;2.30;;
46863;SDS011;32598;50.204;6.408;2023-05-07T07:34:16;5.30;;;2.43;;
46863;SDS011;32598;50.204;6.408;2023-05-07T07:36:42;5.07;;;2.20;;
46863;SDS011;32598;50.204;6.408;2023-05-07T07:39:07;5.07;;;2.30;;
46863;SDS011;32598;50.204;6.408;2023-05-07T07:41:32;7.63;;;2.67;;
46863;SDS011;32598;50.204;6.408;2023-05-07T07:43:57;6.32;;;2.50;;
46863;SDS011;32598;50.204;6.408;2023-05-07T07:46:22;6.13;;;2.57;;
46863;SDS011;32598;50.204;6.408;2023-05-07T07:48:47;5.70;;;2.30;;
46863;SDS011;32598;50.204;6.408;2023-05-07T07:51:13;5.60;;;2.57;;
46863;SDS011;32598;50.204;6.408;2023-05-07T07:53:38;6.10;;;2.50;;
46863;SDS011;32598;50.204;6.408;2023-05-07T07:56:03;5.77;;;2.30;;
46863;SDS011;32598;50.204;6.408;2023-05-07T07:58:28;7.03;;;2.70;;
46863;SDS011;32598;50.204;6.408;2023-05-07T08:00:53;6.43;;;2.63;;
46863;SDS011;32598;50.204;6.408;2023-05-07T08:03:20;6.57;;;2.60;;
46863;SDS011;32598;50.204;6.408;2023-05-07T08:05:46;6.53;;;2.30;;
46863;SDS011;32598;50.204;6.408;2023-05-07T08:08:11;4.77;;;2.20;;
46863;SDS011;32598;50.204;6.408;2023-05-07T08:10:36;5.37;;;2.50;;
46863;SDS011;32598;50.204;6.408;2023-05-07T08:13:03;6.22;;;2.30;;
46863;SDS011;32598;50.204;6.408;2023-05-07T08:15:29;4.70;;;2.10;;
46863;SDS011;32598;50.204;6.408;2023-05-07T08:17:54;5.18;;;2.35;;
46863;SDS011;32598;50.204;6.408;2023-05-07T08:20:22;7.50;;;2.30;;
46863;SDS011;32598;50.204;6.408;2023-05-07T08:22:47;5.63;;;1.90;;
46863;SDS011;32598;50.204;6.408;2023-05-07T08:25:12;4.85;;;2.13;;
46863;SDS011;32598;50.204;6.408;2023-05-07T08:27:37;5.13;;;1.97;;
46863;SDS011;32598;50.204;6.408;2023-05-07T08:30:03;6.07;;;2.10;;
46863;SDS011;32598;50.204;6.408;2023-05-07T08:32:28;5.35;;;2.28;;
46863;SDS011;32598;50.204;6.408;2023-05-07T08:34:54;4.90;;;2.10;;
46863;SDS011;32598;50.204;6.408;2023-05-07T08:37:19;6.40;;;2.50;;
46863;SDS011;32598;50.204;6.408;2023-05-07T08:39:44;5.60;;;1.90;;
46863;SDS011;32598;50.204;6.408;2023-05-07T08:42:10;6.57;;;2.30;;
46863;SDS011;32598;50.204;6.408;2023-05-07T08:44:36;4.68;;;1.88;;
46863;SDS011;32598;50.204;6.408;2023-05-07T08:47:03;4.72;;;1.83;;
46863;SDS011;32598;50.204;6.408;2023-05-07T08:49:29;4.57;;;1.65;;
46863;SDS011;32598;50.204;6.408;2023-05-07T08:51:55;5.70;;;2.28;;
46863;SDS011;32598;50.204;6.408;2023-05-07T08:54:21;4.95;;;1.83;;
46863;SDS011;32598;50.204;6.408;2023-05-07T08:59:15;4.53;;;1.30;;
46863;SDS011;32598;50.204;6.408;2023-05-07T09:01:40;7.45;;;1.85;;
46863;SDS011;32598;50.204;6.408;2023-05-07T09:04:06;6.07;;;1.90;;
46863;SDS011;32598;50.204;6.408;2023-05-07T09:06:32;5.47;;;1.60;;
46863;SDS011;32598;50.204;6.408;2023-05-07T09:08:57;3.50;;;1.40;;
46863;SDS011;32598;50.204;6.408;2023-05-07T09:11:25;3.92;;;1.20;;
46863;SDS011;32598;50.204;6.408;2023-05-07T09:13:54;3.27;;;1.30;;
46863;SDS011;32598;50.204;6.408;2023-05-07T09:16:20;4.18;;;1.30;;
46863;SDS011;32598;50.204;6.408;2023-05-07T09:18:46;4.43;;;1.40;;
46863;SDS011;32598;50.204;6.408;2023-05-07T09:21:15;6.15;;;1.60;;
46863;SDS011;32598;50.204;6.408;2023-05-07T09:23:41;4.43;;;1.40;;
46863;SDS011;32598;50.204;6.408;2023-05-07T09:26:06;5.18;;;1.42;;
46863;SDS011;32598;50.204;6.408;2023-05-07T09:28:37;5.30;;;1.48;;
46863;SDS011;32598;50.204;6.408;2023-05-07T09:31:03;4.85;;;1.40;;
46863;SDS011;32598;50.204;6.408;2023-05-07T09:33:28;4.85;;;1.35;;
46863;SDS011;32598;50.204;6.408;2023-05-07T09:35:54;3.53;;;1.15;;
46863;SDS011;32598;50.204;6.408;2023-05-07T09:38:19;4.28;;;1.25;;
46863;SDS011;32598;50.204;6.408;2023-05-07T09:40:46;4.75;;;1.20;;
46863;SDS011;32598;50.204;6.408;2023-05-07T09:43:12;5.10;;;1.30;;
46863;SDS011;32598;50.204;6.408;2023-05-07T09:45:38;4.90;;;1.38;;
46863;SDS011;32598;50.204;6.408;2023-05-07T09:48:04;5.10;;;1.45;;
46863;SDS011;32598;50.204;6.408;2023-05-07T09:50:32;6.00;;;1.92;;
46863;SDS011;32598;50.204;6.408;2023-05-07T09:53:00;4.07;;;1.38;;
46863;SDS011;32598;50.204;6.408;2023-05-07T09:55:26;4.00;;;1.45;;
46863;SDS011;32598;50.204;6.408;2023-05-07T09:57:52;5.07;;;1.55;;
46863;SDS011;32598;50.204;6.408;2023-05-07T10:00:21;6.85;;;1.60;;
46863;SDS011;32598;50.204;6.408;2023-05-07T10:02:51;5.50;;;1.67;;
46863;SDS011;32598;50.204;6.408;2023-05-07T10:05:17;4.28;;;1.45;;
46863;SDS011;32598;50.204;6.408;2023-05-07T10:07:43;5.10;;;1.70;;
46863;SDS011;32598;50.204;6.408;2023-05-07T10:10:09;5.63;;;1.30;;
46863;SDS011;32598;50.204;6.408;2023-05-07T10:12:35;3.78;;;1.20;;
46863;SDS011;32598;50.204;6.408;2023-05-07T10:15:07;5.22;;;1.30;;
46863;SDS011;32598;50.204;6.408;2023-05-07T10:17:36;6.63;;;1.55;;
46863;SDS011;32598;50.204;6.408;2023-05-07T10:20:01;4.53;;;1.40;;
46863;SDS011;32598;50.204;6.408;2023-05-07T10:22:27;2.50;;;1.00;;
46863;SDS011;32598;50.204;6.408;2023-05-07T10:24:53;3.97;;;1.30;;
46863;SDS011;32598;50.204;6.408;2023-05-07T10:27:21;4.78;;;1.40;;
46863;SDS011;32598;50.204;6.408;2023-05-07T10:29:57;5.05;;;1.55;;
46863;SDS011;32598;50.204;6.408;2023-05-07T10:32:33;3.97;;;1.38;;
46863;SDS011;32598;50.204;6.408;2023-05-07T10:35:01;4.95;;;1.67;;
46863;SDS011;32598;50.204;6.408;2023-05-07T10:37:27;4.32;;;1.30;;
46863;SDS011;32598;50.204;6.408;2023-05-07T10:39:52;6.40;;;1.20;;
46863;SDS011;32598;50.204;6.408;2023-05-07T10:42:18;3.85;;;1.20;;
46863;SDS011;32598;50.204;6.408;2023-05-07T10:44:43;3.83;;;1.20;;
46863;SDS011;32598;50.204;6.408;2023-05-07T10:47:12;4.47;;;1.23;;
46863;SDS011;32598;50.204;6.408;2023-05-07T10:52:12;3.95;;;1.02;;
46863;SDS011;32598;50.204;6.408;2023-05-07T10:54:41;4.60;;;1.30;;
46863;SDS011;32598;50.204;6.408;2023-05-07T10:59:50;7.15;;;1.30;;
46863;SDS011;32598;50.204;6.408;2023-05-07T11:02:16;5.57;;;1.17;;
46863;SDS011;32598;50.204;6.408;2023-05-07T11:04:42;4.27;;;1.20;;
46863;SDS011;32598;50.204;6.408;2023-05-07T11:13:02;5.60;;;1.30;;
46863;SDS011;32598;50.204;6.408;2023-05-07T11:17:27;4.60;;;1.15;;
